Time;durP1;ratioP1;P1;durP2;ratioP2;P2;SDS_P1;SDS_P2;PMS_P1;PMS_P2;Temp;Humidity;BMP_temperature;BMP_pressure;BME280_temperature;BME280_humidity;BME280_pressure;Samples;Min_cycle;Max_cycle;Signal;HPM_P1;HPM_P2
2022/08/01 00:00:13;;;;;;;3.35;2.88;;;;;;;;;;5020188;28;20053;-82
2022/08/01 00:02:41;;;;;;;3.05;2.80;;;;;;;;;;5019309;28;20049;-81
2022/08/01 00:05:08;;;;;;;2.72;2.53;;;;;;;;;;5016380;28;20070;-83
2022/08/01 00:07:36;;;;;;;4.20;2.85;;;;;;;;;;5015705;28;20058;-83
2022/08/01 00:10:04;;;;;;;2.78;2.58;;;;;;;;;;5014530;28;20514;-83
2022/08/01 00:12:31;;;;;;;2.92;2.65;;;;;;;;;;5015802;28;20053;-83
2022/08/01 00:14:58;;;;;;;3.33;2.95;;;;;;;;;;5014518;28;20085;-83
2022/08/01 00:17:25;;;;;;;2.90;2.70;;;;;;;;;;5014106;28;20050;-83
2022/08/01 00:19:52;;;;;;;3.75;3.10;;;;;;;;;;5014407;28;20054;-83
2022/08/01 00:22:20;;;;;;;4.03;2.83;;;;;;;;;;5014121;28;20069;-83
2022/08/01 00:24:47;;;;;;;3.00;2.80;;;;;;;;;;5014234;28;20134;-84
2022/08/01 00:27:14;;;;;;;3.30;3.10;;;;;;;;;;5014486;28;20116;-83
2022/08/01 00:29:41;;;;;;;3.30;2.88;;;;;;;;;;5013618;28;20045;-83
2022/08/01 00:32:30;;;;;;;3.38;2.80;;;;;;;;;;5014255;28;20046;-83
2022/08/01 00:34:58;;;;;;;2.97;2.78;;;;;;;;;;5013978;28;20480;-83
2022/08/01 00:37:25;;;;;;;2.70;2.50;;;;;;;;;;5014050;28;20153;-83
2022/08/01 00:39:52;;;;;;;4.80;3.50;;;;;;;;;;5014230;28;20503;-83
2022/08/01 00:42:19;;;;;;;4.75;2.60;;;;;;;;;;5015675;28;20053;-83
2022/08/01 00:44:46;;;;;;;3.30;3.00;;;;;;;;;;5014206;28;20088;-84
2022/08/01 00:47:13;;;;;;;3.30;3.03;;;;;;;;;;5014265;28;20203;-84
2022/08/01 00:49:41;;;;;;;2.80;2.58;;;;;;;;;;5014751;28;20050;-83
2022/08/01 00:52:08;;;;;;;3.40;3.10;;;;;;;;;;5014732;28;20073;-82
2022/08/01 00:54:36;;;;;;;3.40;3.20;;;;;;;;;;5015140;28;20046;-83
2022/08/01 00:57:03;;;;;;;2.90;2.70;;;;;;;;;;5014788;28;20108;-82
2022/08/01 00:59:30;;;;;;;3.10;2.90;;;;;;;;;;5015042;28;20054;-83
2022/08/01 01:01:58;;;;;;;3.42;3.03;;;;;;;;;;5016213;28;20054;-83
2022/08/01 01:04:27;;;;;;;3.40;3.17;;;;;;;;;;5014751;28;20050;-82
2022/08/01 01:07:12;;;;;;;4.13;3.25;;;;;;;;;;5015937;28;20056;-84
2022/08/01 01:09:43;;;;;;;4.00;3.35;;;;;;;;;;5016445;28;20058;-84
2022/08/01 01:12:16;;;;;;;3.50;3.30;;;;;;;;;;5017793;28;20081;-85
2022/08/01 01:14:50;;;;;;;3.65;3.35;;;;;;;;;;5016461;28;20057;-84
2022/08/01 01:17:20;;;;;;;3.08;2.72;;;;;;;;;;5016739;28;20065;-84
2022/08/01 01:20:08;;;;;;;5.53;3.40;;;;;;;;;;5017400;28;20133;-83
2022/08/01 01:22:43;;;;;;;3.75;3.45;;;;;;;;;;5012990;28;20054;-83
2022/08/01 01:25:18;;;;;;;3.17;3.00;;;;;;;;;;5013237;28;20049;-84
2022/08/01 01:27:45;;;;;;;3.97;3.53;;;;;;;;;;5014444;28;20050;-83
2022/08/01 01:30:13;;;;;;;3.83;3.63;;;;;;;;;;5014563;28;20050;-84
2022/08/01 01:32:42;;;;;;;3.60;3.30;;;;;;;;;;5013272;28;20136;-84
2022/08/01 01:35:16;;;;;;;3.42;3.22;;;;;;;;;;5013064;28;20088;-84
2022/08/01 01:37:43;;;;;;;;;;;;;;;;;;5014848;28;20049;-83
2022/08/01 01:40:11;;;;;;;3.63;3.33;;;;;;;;;;5014547;28;19957;-84
2022/08/01 01:42:39;;;;;;;3.97;3.67;;;;;;;;;;5012521;28;20073;-83
2022/08/01 01:45:07;;;;;;;5.43;3.53;;;;;;;;;;5012715;28;20542;-84
2022/08/01 01:47:34;;;;;;;5.97;3.42;;;;;;;;;;5012878;28;20042;-84
2022/08/01 01:50:02;;;;;;;3.85;3.50;;;;;;;;;;5014030;28;20069;-84
2022/08/01 01:52:30;;;;;;;4.88;3.40;;;;;;;;;;5012982;28;20042;-84
2022/08/01 01:54:58;;;;;;;4.30;4.00;;;;;;;;;;5013099;28;20054;-84
2022/08/01 01:57:26;;;;;;;3.50;3.30;;;;;;;;;;5012629;28;20140;-84
2022/08/01 01:59:53;;;;;;;7.80;3.50;;;;;;;;;;5013502;28;20450;-84
2022/08/01 02:02:23;;;;;;;4.07;3.78;;;;;;;;;;5013006;28;20084;-85
2022/08/01 02:04:52;;;;;;;4.22;3.85;;;;;;;;;;5013722;28;20054;-85
2022/08/01 02:07:21;;;;;;;3.65;3.45;;;;;;;;;;5013401;28;20050;-84
2022/08/01 02:09:49;;;;;;;4.50;4.10;;;;;;;;;;5013690;28;20077;-84
2022/08/01 02:12:17;;;;;;;4.28;3.97;;;;;;;;;;5016201;28;20050;-84
2022/08/01 02:14:45;;;;;;;4.22;3.83;;;;;;;;;;5016411;28;20498;-85
2022/08/01 02:17:15;;;;;;;3.75;3.45;;;;;;;;;;5018733;28;20054;-85
2022/08/01 02:19:43;;;;;;;4.38;3.90;;;;;;;;;;5017468;28;20045;-85
2022/08/01 02:22:11;;;;;;;4.20;3.90;;;;;;;;;;5017392;28;20121;-84
2022/08/01 02:24:38;;;;;;;7.53;4.30;;;;;;;;;;5016925;28;20050;-85
2022/08/01 02:27:08;;;;;;;5.78;4.40;;;;;;;;;;5018505;28;20046;-85
2022/08/01 02:29:41;;;;;;;8.40;4.00;;;;;;;;;;5018810;28;20077;-85
2022/08/01 02:32:12;;;;;;;4.30;3.97;;;;;;;;;;5016010;28;20046;-85
2022/08/01 02:34:40;;;;;;;5.07;4.20;;;;;;;;;;5016193;28;20073;-84
2022/08/01 02:37:08;;;;;;;4.25;3.85;;;;;;;;;;5016814;28;20054;-83
2022/08/01 02:39:36;;;;;;;6.03;3.60;;;;;;;;;;5012487;28;20077;-83
2022/08/01 02:42:06;;;;;;;3.95;3.60;;;;;;;;;;5013701;28;20073;-84
2022/08/01 02:44:38;;;;;;;4.55;3.95;;;;;;;;;;5013572;28;20096;-83
2022/08/01 02:47:06;;;;;;;5.82;3.80;;;;;;;;;;5013518;28;20053;-83
2022/08/01 02:49:43;;;;;;;6.18;4.15;;;;;;;;;;5012253;28;20046;-83
2022/08/01 02:52:13;;;;;;;4.03;3.72;;;;;;;;;;5012468;28;20438;-84
2022/08/01 02:54:42;;;;;;;4.22;3.83;;;;;;;;;;5016039;28;20053;-83
2022/08/01 02:57:09;;;;;;;4.13;3.72;;;;;;;;;;5015913;28;20116;-84
2022/08/01 02:59:40;;;;;;;4.35;4.05;;;;;;;;;;5016131;28;20052;-84
2022/08/01 03:02:08;;;;;;;3.97;3.67;;;;;;;;;;5015948;28;20108;-84
2022/08/01 03:04:38;;;;;;;4.15;3.95;;;;;;;;;;5016104;28;20042;-84
2022/08/01 03:07:08;;;;;;;4.32;4.00;;;;;;;;;;5017077;28;20045;-84
2022/08/01 03:09:38;;;;;;;4.97;4.35;;;;;;;;;;5015722;28;20072;-84
2022/08/01 03:12:06;;;;;;;5.88;5.03;;;;;;;;;;5016821;28;20487;-84
2022/08/01 03:14:35;;;;;;;4.43;4.13;;;;;;;;;;5016474;28;20049;-84
2022/08/01 03:17:04;;;;;;;5.32;4.82;;;;;;;;;;5017790;28;20077;-84
2022/08/01 03:19:32;;;;;;;4.95;4.45;;;;;;;;;;5016686;28;20056;-84
2022/08/01 03:22:00;;;;;;;4.93;4.53;;;;;;;;;;5018227;28;20046;-85
2022/08/01 03:24:28;;;;;;;5.03;4.55;;;;;;;;;;5015981;28;20552;-84
2022/08/01 03:26:57;;;;;;;6.10;5.50;;;;;;;;;;5017296;28;20073;-83
2022/08/01 03:29:26;;;;;;;5.18;4.65;;;;;;;;;;5016650;28;20084;-83
2022/08/01 03:31:53;;;;;;;5.30;4.90;;;;;;;;;;5015820;28;20065;-86
2022/08/01 03:34:21;;;;;;;8.77;5.00;;;;;;;;;;5014764;28;20530;-86
2022/08/01 03:36:56;;;;;;;5.05;4.63;;;;;;;;;;5015803;28;20132;-86
2022/08/01 03:39:25;;;;;;;5.00;4.70;;;;;;;;;;5014762;28;20123;-86
2022/08/01 03:41:56;;;;;;;5.20;4.80;;;;;;;;;;5014597;28;20324;-86
2022/08/01 03:44:26;;;;;;;5.47;4.97;;;;;;;;;;5014871;28;20046;-84
2022/08/01 03:47:09;;;;;;;5.30;4.97;;;;;;;;;;5015195;28;20054;-87
2022/08/01 03:49:38;;;;;;;5.28;4.85;;;;;;;;;;5014660;28;20050;-84
2022/08/01 03:52:07;;;;;;;5.43;4.93;;;;;;;;;;5014334;28;20041;-84
2022/08/01 03:54:41;;;;;;;5.28;4.78;;;;;;;;;;5014478;28;20060;-84
2022/08/01 03:57:09;;;;;;;4.97;4.57;;;;;;;;;;5015040;28;20050;-85
2022/08/01 03:59:58;;;;;;;4.97;4.57;;;;;;;;;;5015469;28;20042;-84
2022/08/01 04:02:26;;;;;;;9.90;4.88;;;;;;;;;;5014071;28;20050;-86
2022/08/01 04:04:54;;;;;;;4.75;4.15;;;;;;;;;;5013707;28;20042;-85
2022/08/01 04:07:22;;;;;;;4.97;4.57;;;;;;;;;;5014017;28;20064;-87
2022/08/01 04:09:50;;;;;;;6.25;4.28;;;;;;;;;;5015163;28;20561;-87
2022/08/01 04:12:17;;;;;;;5.43;4.43;;;;;;;;;;5015181;28;20085;-86
2022/08/01 04:14:44;;;;;;;4.75;4.40;;;;;;;;;;5014117;28;20085;-85
2022/08/01 04:17:11;;;;;;;4.47;4.18;;;;;;;;;;5013962;28;20404;-87
2022/08/01 04:19:38;;;;;;;4.82;4.43;;;;;;;;;;5014072;28;20486;-86
2022/08/01 04:22:06;;;;;;;5.45;4.95;;;;;;;;;;5013655;28;20053;-87
2022/08/01 04:24:35;;;;;;;6.25;4.75;;;;;;;;;;5013883;28;20057;-86
2022/08/01 04:27:05;;;;;;;5.10;4.47;;;;;;;;;;5013533;28;20506;-86
2022/08/01 04:29:34;;;;;;;6.28;4.85;;;;;;;;;;5013722;28;20073;-86
2022/08/01 04:32:01;;;;;;;6.63;4.38;;;;;;;;;;5013781;28;20499;-86
2022/08/01 04:34:31;;;;;;;5.22;4.65;;;;;;;;;;5013471;28;20478;-87
2022/08/01 04:36:58;;;;;;;6.57;4.32;;;;;;;;;;5013465;28;20142;-85
2022/08/01 04:39:30;;;;;;;9.48;4.25;;;;;;;;;;5013430;28;20054;-87
2022/08/01 04:41:58;;;;;;;7.43;4.47;;;;;;;;;;5013522;28;20079;-85
2022/08/01 04:44:27;;;;;;;4.35;3.95;;;;;;;;;;5013272;28;20096;-84
2022/08/01 04:47:03;;;;;;;4.07;3.60;;;;;;;;;;5013354;28;20103;-84
2022/08/01 04:49:31;;;;;;;4.90;3.90;;;;;;;;;;5013397;28;20108;-85
2022/08/01 04:52:17;;;;;;;6.05;3.63;;;;;;;;;;5013336;28;20057;-85
2022/08/01 04:54:50;;;;;;;5.05;4.28;;;;;;;;;;5013470;28;20073;-85
2022/08/01 04:57:17;;;;;;;3.75;3.53;;;;;;;;;;5013015;28;20058;-85
2022/08/01 04:59:46;;;;;;;3.30;3.10;;;;;;;;;;5013276;28;20058;-84
2022/08/01 05:02:14;;;;;;;4.85;3.75;;;;;;;;;;5013123;28;20100;-85
2022/08/01 05:04:42;;;;;;;6.70;3.88;;;;;;;;;;5013080;28;20081;-85
2022/08/01 05:07:10;;;;;;;6.32;4.10;;;;;;;;;;5014077;28;20045;-83
2022/08/01 05:09:37;;;;;;;5.53;4.18;;;;;;;;;;5013093;28;20118;-85
2022/08/01 05:12:05;;;;;;;6.70;3.60;;;;;;;;;;5012961;28;20412;-85
2022/08/01 05:14:33;;;;;;;3.90;3.50;;;;;;;;;;5016621;28;20054;-85
2022/08/01 05:17:02;;;;;;;4.10;3.53;;;;;;;;;;5011777;28;20081;-85
2022/08/01 05:19:34;;;;;;;3.88;3.58;;;;;;;;;;5012653;28;20459;-84
2022/08/01 05:22:04;;;;;;;5.10;4.10;;;;;;;;;;5012883;28;20054;-85
2022/08/01 05:24:32;;;;;;;3.72;3.42;;;;;;;;;;5012665;28;20056;-84
2022/08/01 05:26:59;;;;;;;4.00;3.60;;;;;;;;;;5012757;28;20091;-84
2022/08/01 05:29:29;;;;;;;5.45;4.30;;;;;;;;;;5013644;28;20049;-85
2022/08/01 05:31:57;;;;;;;4.60;3.95;;;;;;;;;;5012560;28;20050;-84
2022/08/01 05:34:24;;;;;;;3.90;3.63;;;;;;;;;;5012444;28;20415;-84
2022/08/01 05:36:51;;;;;;;4.10;3.70;;;;;;;;;;5013572;28;20042;-84
2022/08/01 05:39:24;;;;;;;4.25;3.90;;;;;;;;;;5012477;28;20046;-84
2022/08/01 05:41:51;;;;;;;4.00;3.58;;;;;;;;;;5012272;28;20045;-84
2022/08/01 05:44:18;;;;;;;4.53;3.92;;;;;;;;;;5012422;28;20045;-85
2022/08/01 05:46:46;;;;;;;3.88;3.40;;;;;;;;;;5013341;28;20100;-85
2022/08/01 05:49:13;;;;;;;4.05;3.70;;;;;;;;;;5014122;28;20061;-84
2022/08/01 05:51:40;;;;;;;6.63;3.88;;;;;;;;;;5015225;28;20050;-84
2022/08/01 05:54:07;;;;;;;6.95;3.70;;;;;;;;;;5014565;28;20078;-84
2022/08/01 05:56:35;;;;;;;4.63;3.47;;;;;;;;;;5012228;28;20133;-84
2022/08/01 05:59:02;;;;;;;5.30;3.95;;;;;;;;;;5012184;28;20099;-84
2022/08/01 06:01:29;;;;;;;4.85;4.15;;;;;;;;;;5012107;28;20092;-84
2022/08/01 06:03:56;;;;;;;5.82;3.80;;;;;;;;;;5012144;28;20407;-84
2022/08/01 06:06:23;;;;;;;4.32;3.83;;;;;;;;;;5012026;28;20042;-82
2022/08/01 06:08:51;;;;;;;5.15;4.07;;;;;;;;;;5012260;28;20070;-83
2022/08/01 06:11:18;;;;;;;6.85;5.53;;;;;;;;;;5011885;28;20466;-86
2022/08/01 06:13:46;;;;;;;4.80;4.50;;;;;;;;;;5012259;28;20144;-85
2022/08/01 06:16:15;;;;;;;7.28;4.68;;;;;;;;;;5012057;28;20400;-85
2022/08/01 06:18:42;;;;;;;5.32;5.03;;;;;;;;;;5013368;28;20112;-86
2022/08/01 06:21:09;;;;;;;12.18;5.95;;;;;;;;;;5013659;28;20463;-85
2022/08/01 06:23:37;;;;;;;6.47;5.43;;;;;;;;;;5016092;28;20462;-83
2022/08/01 06:26:04;;;;;;;9.52;4.72;;;;;;;;;;5013359;28;20046;-85
2022/08/01 06:28:33;;;;;;;4.53;4.32;;;;;;;;;;5015812;28;20079;-85
2022/08/01 06:31:00;;;;;;;7.28;5.18;;;;;;;;;;5017261;28;20054;-86
2022/08/01 06:33:27;;;;;;;6.70;4.70;;;;;;;;;;5016649;28;20042;-83
2022/08/01 06:35:55;;;;;;;9.18;5.35;;;;;;;;;;5015847;28;20128;-85
2022/08/01 06:38:22;;;;;;;8.00;5.30;;;;;;;;;;5015947;28;20058;-84
2022/08/01 06:40:50;;;;;;;6.93;4.75;;;;;;;;;;5015947;28;20082;-83
2022/08/01 06:43:18;;;;;;;6.43;4.85;;;;;;;;;;5015999;28;20100;-83
2022/08/01 06:45:45;;;;;;;5.32;4.40;;;;;;;;;;5015633;28;20054;-83
2022/08/01 06:48:12;;;;;;;5.80;4.50;;;;;;;;;;5015857;28;20046;-81
2022/08/01 06:50:40;;;;;;;6.38;4.40;;;;;;;;;;5017372;28;20475;-81
2022/08/01 06:53:07;;;;;;;4.13;3.67;;;;;;;;;;5017311;28;20519;-82
2022/08/01 06:55:34;;;;;;;3.83;3.20;;;;;;;;;;5016290;28;20104;-82
2022/08/01 06:58:01;;;;;;;4.82;2.60;;;;;;;;;;5017094;28;20085;-81
2022/08/01 07:00:28;;;;;;;2.90;2.70;;;;;;;;;;5016062;28;20058;-82
2022/08/01 07:02:58;;;;;;;3.63;2.22;;;;;;;;;;5016199;28;20060;-82
2022/08/01 07:05:25;;;;;;;3.00;2.80;;;;;;;;;;5016172;28;20060;-83
2022/08/01 07:07:52;;;;;;;2.63;2.30;;;;;;;;;;5016535;28;20078;-82
2022/08/01 07:10:20;;;;;;;2.88;2.20;;;;;;;;;;5017477;28;20053;-83
2022/08/01 07:12:47;;;;;;;5.15;2.55;;;;;;;;;;5016174;28;20050;-82
2022/08/01 07:15:15;;;;;;;2.45;2.33;;;;;;;;;;5017545;28;20561;-82
2022/08/01 07:17:43;;;;;;;2.42;2.20;;;;;;;;;;5016646;28;20503;-82
2022/08/01 07:20:11;;;;;;;3.05;1.90;;;;;;;;;;5016600;28;20069;-83
2022/08/01 07:22:42;;;;;;;2.10;1.90;;;;;;;;;;5016997;28;20049;-82
2022/08/01 07:25:09;;;;;;;1.67;1.58;;;;;;;;;;5016859;28;20081;-83
2022/08/01 07:27:37;;;;;;;3.38;1.80;;;;;;;;;;5017438;28;20050;-83
2022/08/01 07:30:05;;;;;;;1.42;1.33;;;;;;;;;;5016742;28;20506;-82
2022/08/01 07:32:34;;;;;;;1.63;1.40;;;;;;;;;;5017613;28;20440;-82
2022/08/01 07:35:02;;;;;;;3.53;1.50;;;;;;;;;;5017857;28;20042;-83
2022/08/01 07:37:29;;;;;;;1.42;1.40;;;;;;;;;;5018613;28;20060;-82
2022/08/01 07:40:15;;;;;;;1.80;1.27;;;;;;;;;;5018481;28;20061;-83
2022/08/01 07:42:44;;;;;;;0.98;0.98;;;;;;;;;;5018422;28;20056;-83
2022/08/01 07:45:12;;;;;;;1.30;0.80;;;;;;;;;;5019873;28;20427;-83
2022/08/01 07:47:39;;;;;;;1.00;0.70;;;;;;;;;;5021207;28;20050;-84
2022/08/01 07:50:06;;;;;;;0.68;0.65;;;;;;;;;;5024456;28;20605;-83
2022/08/01 07:52:33;;;;;;;0.77;0.77;;;;;;;;;;5016015;28;20487;-83
2022/08/01 07:55:01;;;;;;;0.98;0.75;;;;;;;;;;5016066;28;20046;-83
2022/08/01 07:57:28;;;;;;;0.50;0.50;;;;;;;;;;5016678;28;20054;-83
2022/08/01 07:59:55;;;;;;;0.73;0.73;;;;;;;;;;5016215;28;20057;-83
2022/08/01 08:02:22;;;;;;;0.57;0.57;;;;;;;;;;5016377;28;20046;-82
2022/08/01 08:04:49;;;;;;;0.73;0.73;;;;;;;;;;5016756;28;20054;-81
2022/08/01 08:07:17;;;;;;;0.93;0.88;;;;;;;;;;5016344;28;20534;-82
2022/08/01 08:09:44;;;;;;;0.60;0.60;;;;;;;;;;5016525;28;20050;-83
2022/08/01 08:12:17;;;;;;;0.70;0.70;;;;;;;;;;5016557;28;20050;-83
2022/08/01 08:14:54;;;;;;;1.20;0.80;;;;;;;;;;5014145;28;20082;-83
2022/08/01 08:17:23;;;;;;;0.65;0.65;;;;;;;;;;5014548;28;20056;-82
2022/08/01 08:19:50;;;;;;;0.57;0.57;;;;;;;;;;5014559;28;20046;-83
2022/08/01 08:22:17;;;;;;;2.53;0.70;;;;;;;;;;5014449;28;20096;-83
2022/08/01 08:24:45;;;;;;;0.50;0.50;;;;;;;;;;5014818;28;20080;-83
2022/08/01 08:27:13;;;;;;;2.72;0.80;;;;;;;;;;5015161;28;20392;-83
2022/08/01 08:29:40;;;;;;;0.60;0.60;;;;;;;;;;5015364;28;20074;-82
2022/08/01 08:32:07;;;;;;;2.05;0.90;;;;;;;;;;5015831;28;20046;-84
2022/08/01 08:34:35;;;;;;;0.63;0.63;;;;;;;;;;5016245;28;20045;-83
2022/08/01 08:37:02;;;;;;;0.50;0.50;;;;;;;;;;5015653;28;20127;-83
2022/08/01 08:39:31;;;;;;;0.60;0.60;;;;;;;;;;5016264;28;20056;-82
2022/08/01 08:42:08;;;;;;;1.15;0.70;;;;;;;;;;5017197;28;20058;-83
2022/08/01 08:44:35;;;;;;;0.95;0.75;;;;;;;;;;5016077;28;20080;-84
2022/08/01 08:47:06;;;;;;;0.70;0.70;;;;;;;;;;5016664;28;20042;-83
2022/08/01 08:49:36;;;;;;;0.80;0.80;;;;;;;;;;5017930;28;20064;-84
2022/08/01 08:52:04;;;;;;;0.75;0.75;;;;;;;;;;5018806;28;20474;-82
2022/08/01 08:54:36;;;;;;;0.80;0.80;;;;;;;;;;5019719;28;20057;-83
2022/08/01 08:57:04;;;;;;;0.73;0.70;;;;;;;;;;5019819;28;20058;-82
2022/08/01 08:59:43;;;;;;;3.67;0.98;;;;;;;;;;5020502;28;20459;-83
2022/08/01 09:02:11;;;;;;;1.50;0.70;;;;;;;;;;5021424;28;20070;-83
2022/08/01 09:04:40;;;;;;;0.60;0.60;;;;;;;;;;5022458;28;20081;-85
2022/08/01 09:07:08;;;;;;;1.85;0.73;;;;;;;;;;5022352;28;20109;-84
2022/08/01 09:09:38;;;;;;;1.48;0.70;;;;;;;;;;5014112;28;20454;-84
2022/08/01 09:12:08;;;;;;;1.30;0.90;;;;;;;;;;5013167;28;20046;-83
2022/08/01 09:14:44;;;;;;;1.05;0.70;;;;;;;;;;5013158;28;20065;-83
2022/08/01 09:17:12;;;;;;;0.85;0.50;;;;;;;;;;5013048;28;20542;-83
2022/08/01 09:19:44;;;;;;;0.82;0.80;;;;;;;;;;5013199;28;20545;-83
2022/08/01 09:22:12;;;;;;;1.33;0.70;;;;;;;;;;5012998;28;20088;-82
2022/08/01 09:24:40;;;;;;;0.60;0.60;;;;;;;;;;5012695;28;20073;-83
2022/08/01 09:27:18;;;;;;;0.50;0.50;;;;;;;;;;5012653;28;20050;-83
2022/08/01 09:29:48;;;;;;;1.85;0.60;;;;;;;;;;5012778;28;20057;-83
2022/08/01 09:32:28;;;;;;;0.77;0.30;;;;;;;;;;5012709;28;20427;-83
2022/08/01 09:35:20;;;;;;;0.17;0.15;;;;;;;;;;5012669;28;20052;-82
2022/08/01 09:37:47;;;;;;;0.20;0.20;;;;;;;;;;5013514;28;20064;-83
2022/08/01 09:40:14;;;;;;;1.15;0.10;;;;;;;;;;5013211;28;20484;-83
2022/08/01 09:42:41;;;;;;;0.10;0.00;;;;;;;;;;5013507;28;20084;-81
2022/08/01 09:45:09;;;;;;;1.40;0.10;;;;;;;;;;5014072;28;20103;-82
2022/08/01 09:47:49;;;;;;;0.10;0.10;;;;;;;;;;5015462;28;20042;-82
2022/08/01 09:50:16;;;;;;;1.23;0.17;;;;;;;;;;5014359;28;20095;-83
2022/08/01 09:52:53;;;;;;;0.20;0.20;;;;;;;;;;5014436;28;20061;-82
2022/08/01 09:55:21;;;;;;;0.30;0.20;;;;;;;;;;5014399;28;20054;-81
2022/08/01 09:57:55;;;;;;;0.43;0.25;;;;;;;;;;5014327;28;20054;-80
2022/08/01 10:00:22;;;;;;;0.30;0.30;;;;;;;;;;5016103;28;20111;-82
2022/08/01 10:03:20;;;;;;;0.68;0.30;;;;;;;;;;5014820;28;20380;-82
2022/08/01 10:05:50;;;;;;;0.55;0.40;;;;;;;;;;5016339;28;20109;-82
2022/08/01 10:08:18;;;;;;;0.88;0.50;;;;;;;;;;5016510;28;20054;-82
2022/08/01 10:11:07;;;;;;;0.80;0.50;;;;;;;;;;5016420;28;20096;-82
2022/08/01 10:13:38;;;;;;;0.30;0.30;;;;;;;;;;5017462;28;20080;-83
2022/08/01 10:16:06;;;;;;;0.43;0.43;;;;;;;;;;5018519;28;20116;-82
2022/08/01 10:18:35;;;;;;;5.40;0.77;;;;;;;;;;5017454;28;20057;-82
2022/08/01 10:21:04;;;;;;;0.40;0.40;;;;;;;;;;5018485;28;20049;-84
2022/08/01 10:23:37;;;;;;;1.15;0.57;;;;;;;;;;5022160;28;20578;-84
2022/08/01 10:26:07;;;;;;;0.28;0.28;;;;;;;;;;5017226;28;20448;-82
2022/08/01 10:28:36;;;;;;;4.85;0.57;;;;;;;;;;5014339;28;20049;-82
2022/08/01 10:31:06;;;;;;;2.05;0.47;;;;;;;;;;5012462;28;20050;-82
2022/08/01 10:33:41;;;;;;;0.93;0.40;;;;;;;;;;5012335;28;20077;-82
2022/08/01 10:36:20;;;;;;;2.30;0.57;;;;;;;;;;5012121;28;20050;-81
2022/08/01 10:38:48;;;;;;;0.35;0.35;;;;;;;;;;5012523;28;20060;-82
2022/08/01 10:41:16;;;;;;;1.45;0.30;;;;;;;;;;5012148;28;20081;-81
2022/08/01 10:43:43;;;;;;;0.40;0.40;;;;;;;;;;5011830;28;20045;-82
2022/08/01 10:46:13;;;;;;;0.25;0.25;;;;;;;;;;5011780;28;20046;-82
2022/08/01 10:49:00;;;;;;;0.65;0.30;;;;;;;;;;5011941;28;20507;-83
2022/08/01 10:51:28;;;;;;;0.52;0.50;;;;;;;;;;5011541;28;20096;-83
2022/08/01 10:54:15;;;;;;;0.30;0.30;;;;;;;;;;5012929;28;20042;-83
2022/08/01 10:56:46;;;;;;;0.30;0.30;;;;;;;;;;5011827;28;20057;-82
2022/08/01 10:59:15;;;;;;;0.20;0.20;;;;;;;;;;5011759;28;20049;-82
2022/08/01 11:02:02;;;;;;;2.75;0.40;;;;;;;;;;5011962;28;20108;-82
2022/08/01 11:04:46;;;;;;;6.38;0.60;;;;;;;;;;5011669;28;20108;-83
2022/08/01 11:07:18;;;;;;;1.77;0.88;;;;;;;;;;5011683;28;20467;-81
2022/08/01 11:10:02;;;;;;;2.08;0.80;;;;;;;;;;5012958;28;20062;-81
2022/08/01 11:12:42;;;;;;;0.43;0.40;;;;;;;;;;5011573;28;20077;-81
2022/08/01 11:15:10;;;;;;;1.45;0.50;;;;;;;;;;5015109;28;20073;-81
2022/08/01 11:17:39;;;;;;;0.68;0.40;;;;;;;;;;5015459;28;20140;-83
2022/08/01 11:20:12;;;;;;;0.60;0.50;;;;;;;;;;5015199;28;20125;-83
2022/08/01 11:22:59;;;;;;;0.70;0.40;;;;;;;;;;5015499;28;20053;-83
2022/08/01 11:25:34;;;;;;;2.35;0.57;;;;;;;;;;5014833;28;20070;-84
2022/08/01 11:28:26;;;;;;;0.73;0.73;;;;;;;;;;5015286;28;20056;-82
2022/08/01 11:31:10;;;;;;;0.75;0.60;;;;;;;;;;5014814;28;20132;-84
2022/08/01 11:33:44;;;;;;;0.40;0.40;;;;;;;;;;5014941;28;20064;-82
2022/08/01 11:36:13;;;;;;;3.33;0.50;;;;;;;;;;5016184;28;20460;-84
2022/08/01 11:38:42;;;;;;;3.13;0.40;;;;;;;;;;5023392;28;20049;-85
2022/08/01 11:41:11;;;;;;;0.93;0.50;;;;;;;;;;5023575;28;20077;-85
2022/08/01 11:43:57;;;;;;;0.68;0.45;;;;;;;;;;5024969;28;20054;-83
2022/08/01 11:46:43;;;;;;;2.83;0.60;;;;;;;;;;5015066;28;20103;-82
2022/08/01 11:49:42;;;;;;;2.83;0.40;;;;;;;;;;5015195;28;20054;-83
2022/08/01 11:52:12;;;;;;;0.30;0.30;;;;;;;;;;5010545;28;20050;-84
2022/08/01 11:54:41;;;;;;;0.47;0.30;;;;;;;;;;5014626;28;20069;-83
2022/08/01 11:57:10;;;;;;;0.30;0.30;;;;;;;;;;5014932;28;20415;-83
2022/08/01 11:59:38;;;;;;;0.88;0.43;;;;;;;;;;5015128;28;20054;-81
2022/08/01 12:02:18;;;;;;;1.27;0.30;;;;;;;;;;5015117;28;20057;-84
2022/08/01 12:04:56;;;;;;;1.65;0.40;;;;;;;;;;5014688;28;20069;-84
2022/08/01 12:07:24;;;;;;;0.32;0.32;;;;;;;;;;5014422;28;20050;-84
2022/08/01 12:10:08;;;;;;;0.47;0.43;;;;;;;;;;5014370;28;20100;-85
2022/08/01 12:12:36;;;;;;;0.30;0.30;;;;;;;;;;5015830;28;20046;-81
2022/08/01 12:15:08;;;;;;;2.65;0.73;;;;;;;;;;5014962;28;20415;-82
2022/08/01 12:17:37;;;;;;;0.98;0.40;;;;;;;;;;5015244;28;20054;-84
2022/08/01 12:20:06;;;;;;;1.85;0.60;;;;;;;;;;5014120;28;20467;-84
2022/08/01 12:22:33;;;;;;;3.22;0.47;;;;;;;;;;5014615;28;20639;-84
2022/08/01 12:25:07;;;;;;;0.75;0.35;;;;;;;;;;5014982;28;20049;-82
2022/08/01 12:27:34;;;;;;;;;;;;;;;;;;5017463;28;20115;-83
2022/08/01 12:30:01;;;;;;;1.50;0.38;;;;;;;;;;5016948;28;20004;-83
2022/08/01 12:32:30;;;;;;;0.40;0.40;;;;;;;;;;5016650;28;20120;-84
2022/08/01 12:35:08;;;;;;;0.73;0.50;;;;;;;;;;5016875;28;20046;-84
2022/08/01 12:37:36;;;;;;;0.50;0.50;;;;;;;;;;5017411;28;20081;-83
2022/08/01 12:40:23;;;;;;;0.40;0.40;;;;;;;;;;5018240;28;20100;-84
2022/08/01 12:42:52;;;;;;;5.97;0.70;;;;;;;;;;5015017;28;20046;-84
2022/08/01 12:45:20;;;;;;;0.70;0.40;;;;;;;;;;5018211;28;20053;-85
2022/08/01 12:47:48;;;;;;;2.15;0.40;;;;;;;;;;5016502;28;20050;-83
2022/08/01 12:50:16;;;;;;;2.13;0.60;;;;;;;;;;5018294;28;20045;-82
2022/08/01 12:52:43;;;;;;;1.50;0.52;;;;;;;;;;5018166;28;20389;-83
2022/08/01 12:55:12;;;;;;;0.47;0.47;;;;;;;;;;5019919;28;20073;-83
2022/08/01 12:57:41;;;;;;;1.38;0.40;;;;;;;;;;5020190;28;20046;-84
2022/08/01 13:00:10;;;;;;;0.73;0.50;;;;;;;;;;5023639;28;20045;-85
2022/08/01 13:02:38;;;;;;;1.25;0.60;;;;;;;;;;5013841;28;20053;-85
2022/08/01 13:05:06;;;;;;;0.47;0.47;;;;;;;;;;5013179;28;20046;-81
2022/08/01 13:07:37;;;;;;;1.42;0.38;;;;;;;;;;5012961;28;20129;-86
2022/08/01 13:10:12;;;;;;;0.50;0.50;;;;;;;;;;5012816;28;20096;-83
2022/08/01 13:12:40;;;;;;;0.50;0.50;;;;;;;;;;5013096;28;20045;-82
2022/08/01 13:15:21;;;;;;;0.50;0.50;;;;;;;;;;5013122;28;20050;-81
2022/08/01 13:17:48;;;;;;;0.40;0.40;;;;;;;;;;5014543;28;20431;-80
2022/08/01 13:20:25;;;;;;;1.15;0.57;;;;;;;;;;5013651;28;20077;-83
2022/08/01 13:22:52;;;;;;;0.38;0.38;;;;;;;;;;5013306;28;20042;-86
2022/08/01 13:25:20;;;;;;;0.52;0.47;;;;;;;;;;5013231;28;20121;-85
2022/08/01 13:27:49;;;;;;;2.05;0.50;;;;;;;;;;5014877;28;20495;-84
2022/08/01 13:30:21;;;;;;;0.55;0.55;;;;;;;;;;5013829;28;20057;-83
2022/08/01 13:33:01;;;;;;;1.75;0.60;;;;;;;;;;5013501;28;20049;-84
2022/08/01 13:35:28;;;;;;;0.60;0.60;;;;;;;;;;5014017;28;20084;-83
2022/08/01 13:37:56;;;;;;;0.57;0.50;;;;;;;;;;5013169;28;20104;-85
2022/08/01 13:40:27;;;;;;;0.50;0.50;;;;;;;;;;5014255;28;20076;-81
2022/08/01 13:42:56;;;;;;;3.22;0.60;;;;;;;;;;5014960;28;20054;-85
2022/08/01 13:45:23;;;;;;;0.50;0.50;;;;;;;;;;5014715;28;20438;-84
2022/08/01 13:47:52;;;;;;;0.95;0.70;;;;;;;;;;5016608;28;20046;-84
2022/08/01 13:50:38;;;;;;;0.47;0.40;;;;;;;;;;5015756;28;20129;-81
2022/08/01 13:53:05;;;;;;;1.70;0.60;;;;;;;;;;5017317;28;20045;-82
2022/08/01 13:55:32;;;;;;;0.52;0.43;;;;;;;;;;5016068;28;20046;-84
2022/08/01 13:58:02;;;;;;;9.05;0.85;;;;;;;;;;5015939;28;20049;-82
2022/08/01 14:00:29;;;;;;;0.38;0.38;;;;;;;;;;5016688;28;20052;-81
2022/08/01 14:02:56;;;;;;;1.38;0.50;;;;;;;;;;5018128;28;20049;-84
2022/08/01 14:05:23;;;;;;;2.58;0.47;;;;;;;;;;5019442;28;20086;-83
2022/08/01 14:07:51;;;;;;;0.47;0.47;;;;;;;;;;5017540;28;20046;-84
2022/08/01 14:10:22;;;;;;;0.85;0.40;;;;;;;;;;5017092;28;20551;-84
2022/08/01 14:12:50;;;;;;;2.72;0.40;;;;;;;;;;5017674;28;20053;-85
2022/08/01 14:15:17;;;;;;;1.83;0.50;;;;;;;;;;5022264;28;20046;-85
2022/08/01 14:18:04;;;;;;;1.58;0.45;;;;;;;;;;5031335;28;20056;-82
2022/08/01 14:20:33;;;;;;;0.90;0.40;;;;;;;;;;5014355;28;20495;-83
2022/08/01 14:23:01;;;;;;;2.55;0.65;;;;;;;;;;5013209;28;20451;-82
2022/08/01 14:25:28;;;;;;;0.65;0.60;;;;;;;;;;5012559;28;20053;-80
2022/08/01 14:28:15;;;;;;;0.50;0.50;;;;;;;;;;5012319;28;20057;-81
2022/08/01 14:30:42;;;;;;;0.77;0.40;;;;;;;;;;5013091;28;20054;-82
2022/08/01 14:33:13;;;;;;;0.60;0.60;;;;;;;;;;5012463;28;20100;-83
2022/08/01 14:35:41;;;;;;;0.50;0.45;;;;;;;;;;5019676;28;20104;-82
2022/08/01 14:38:28;;;;;;;3.65;1.20;;;;;;;;;;5013118;28;20140;-80
2022/08/01 14:41:00;;;;;;;0.75;0.60;;;;;;;;;;5013010;28;20065;-82
2022/08/01 14:43:27;;;;;;;2.13;0.40;;;;;;;;;;5013569;28;20054;-83
2022/08/01 14:45:59;;;;;;;1.48;0.47;;;;;;;;;;5013056;28;20116;-84
2022/08/01 14:48:26;;;;;;;1.48;0.40;;;;;;;;;;5015225;28;20046;-81
2022/08/01 14:50:56;;;;;;;0.50;0.50;;;;;;;;;;5018515;28;20054;-82
2022/08/01 14:53:23;;;;;;;0.85;0.50;;;;;;;;;;5019428;28;20058;-82
2022/08/01 14:55:50;;;;;;;6.28;0.90;;;;;;;;;;5017753;28;20050;-84
2022/08/01 14:58:17;;;;;;;1.58;0.57;;;;;;;;;;5018290;28;20488;-82
2022/08/01 15:00:45;;;;;;;1.05;0.70;;;;;;;;;;5018002;28;20046;-82